Time;durP1;ratioP1;P1;durP2;ratioP2;P2;SDS_P1;SDS_P2;PMS_P1;PMS_P2;Temp;Humidity;BMP_temperature;BMP_pressure;BME280_temperature;BME280_humidity;BME280_pressure;Samples;Min_cycle;Max_cycle;Signal;HPM_P1;HPM_P2
2023/06/23 00:00:15;;;;;;;1999.90;999.90;;;19.00;99.90;;;;;;5056840;28;20025;-75
2023/06/23 00:02:41;;;;;;;1999.90;999.90;;;19.00;99.90;;;;;;5056790;28;20030;-76
2023/06/23 00:05:08;;;;;;;1999.90;999.90;;;19.00;99.90;;;;;;5056867;28;20491;-76
2023/06/23 00:07:35;;;;;;;1999.90;999.90;;;19.00;99.90;;;;;;5056803;28;20040;-75
2023/06/23 00:10:05;;;;;;;1999.90;999.90;;;19.00;99.90;;;;;;5056553;28;20137;-75
2023/06/23 00:12:32;;;;;;;1999.90;999.90;;;19.00;99.90;;;;;;5056020;28;20505;-75
2023/06/23 00:14:57;;;;;;;1999.90;999.90;;;19.10;99.90;;;;;;5055085;28;20076;-75
2023/06/23 00:17:23;;;;;;;1999.90;999.90;;;19.10;99.90;;;;;;5056465;28;20064;-75
2023/06/23 00:19:49;;;;;;;1999.90;999.90;;;19.10;99.90;;;;;;5056622;28;20037;-75
2023/06/23 00:22:14;;;;;;;1999.90;999.90;;;19.10;99.90;;;;;;5056158;28;20087;-75
2023/06/23 00:24:40;;;;;;;1999.90;999.90;;;19.10;99.90;;;;;;5056077;28;20451;-74
2023/06/23 00:27:06;;;;;;;1999.90;999.90;;;19.10;99.90;;;;;;5056178;28;20377;-74
2023/06/23 00:29:32;;;;;;;1999.90;999.90;;;19.10;99.90;;;;;;5054874;28;20038;-75
2023/06/23 00:31:57;;;;;;;1999.90;999.90;;;19.10;99.90;;;;;;5054406;28;20041;-75
2023/06/23 00:34:23;;;;;;;1999.90;999.90;;;19.20;99.90;;;;;;5056250;28;20514;-74
2023/06/23 00:36:48;;;;;;;1999.90;999.90;;;19.10;99.90;;;;;;5055935;28;20065;-74
2023/06/23 00:39:14;;;;;;;1999.90;999.90;;;19.10;99.90;;;;;;5055874;28;20480;-75
2023/06/23 00:41:40;;;;;;;1999.90;999.90;;;19.20;99.90;;;;;;5055301;28;20044;-74
2023/06/23 00:44:10;;;;;;;1999.90;999.90;;;19.20;99.90;;;;;;5055977;28;20131;-73
2023/06/23 00:46:35;;;;;;;1999.90;999.90;;;19.20;99.90;;;;;;5056312;28;20597;-74
2023/06/23 00:49:02;;;;;;;1999.90;999.90;;;19.20;99.90;;;;;;5055713;28;20084;-75
2023/06/23 00:51:27;;;;;;;1999.90;999.90;;;19.20;99.90;;;;;;5055480;28;20491;-75
2023/06/23 00:53:54;;;;;;;1999.90;999.90;;;19.20;99.90;;;;;;5055854;28;20029;-75
2023/06/23 00:56:23;;;;;;;1999.90;999.90;;;19.10;99.90;;;;;;5055756;28;20124;-75
2023/06/23 00:58:50;;;;;;;1999.90;999.90;;;19.00;99.90;;;;;;5055411;28;20040;-75
2023/06/23 01:01:16;;;;;;;1999.90;999.90;;;18.80;99.90;;;;;;5055698;28;20522;-76
2023/06/23 01:03:41;;;;;;;1999.90;999.90;;;18.60;99.90;;;;;;5055018;28;20083;-76
2023/06/23 01:06:16;;;;;;;1999.90;999.90;;;18.40;99.90;;;;;;5054261;28;20395;-75
2023/06/23 01:08:56;;;;;;;1999.90;999.90;;;18.20;99.90;;;;;;5055379;28;20527;-76
2023/06/23 01:11:29;;;;;;;1999.90;999.90;;;18.10;99.90;;;;;;5053984;28;20077;-75
2023/06/23 01:14:01;;;;;;;1999.90;999.90;;;17.90;99.90;;;;;;5054267;28;20055;-75
2023/06/23 01:16:33;;;;;;;1999.90;999.90;;;17.70;99.90;;;;;;5055820;28;20033;-75
2023/06/23 01:19:01;;;;;;;1999.90;999.90;;;17.60;99.90;;;;;;5053736;28;20034;-75
2023/06/23 01:21:38;;;;;;;1999.90;999.90;;;17.50;99.90;;;;;;5053812;28;20037;-75
2023/06/23 01:24:28;;;;;;;1999.90;999.90;;;17.40;99.90;;;;;;5055576;28;20025;-75
2023/06/23 01:27:08;;;;;;;1999.90;999.90;;;17.40;99.90;;;;;;5055059;28;20814;-75
2023/06/23 01:29:36;;;;;;;1999.90;999.90;;;17.40;99.90;;;;;;5055338;28;20036;-74
2023/06/23 01:32:18;;;;;;;1999.90;999.90;;;17.40;99.90;;;;;;5054826;28;20038;-75
2023/06/23 01:34:48;;;;;;;1999.90;999.90;;;17.40;99.90;;;;;;5055387;28;20454;-74
2023/06/23 01:37:23;;;;;;;1999.90;999.90;;;17.40;99.90;;;;;;5055263;28;20041;-75
2023/06/23 01:39:54;;;;;;;1999.90;999.90;;;17.40;99.90;;;;;;5055383;28;20053;-74
2023/06/23 01:42:23;;;;;;;1999.90;999.90;;;17.50;99.90;;;;;;5054246;28;20038;-75
2023/06/23 01:44:55;;;;;;;1999.90;999.90;;;17.50;99.90;;;;;;5055016;28;20030;-74
2023/06/23 01:47:26;;;;;;;1999.90;999.90;;;17.50;99.90;;;;;;5054710;28;20028;-75
2023/06/23 01:49:58;;;;;;;1999.90;999.90;;;17.60;99.90;;;;;;5055291;28;20026;-74
2023/06/23 01:52:24;;;;;;;1999.90;999.90;;;17.60;99.90;;;;;;5054851;28;20056;-75
2023/06/23 01:54:51;;;;;;;1999.90;999.90;;;17.60;99.90;;;;;;5054299;28;20041;-75
2023/06/23 01:57:19;;;;;;;1999.90;999.90;;;17.70;99.90;;;;;;5055105;28;20829;-75
2023/06/23 01:59:46;;;;;;;1999.90;999.90;;;17.70;99.90;;;;;;5054943;28;20033;-74
2023/06/23 02:02:13;;;;;;;1999.90;999.90;;;17.70;99.90;;;;;;5054601;28;20048;-74
2023/06/23 02:04:40;;;;;;;1999.90;999.90;;;17.70;99.90;;;;;;5054744;28;20064;-75
2023/06/23 02:07:07;;;;;;;1999.90;999.90;;;17.60;99.90;;;;;;5054055;28;20037;-74
2023/06/23 02:09:35;;;;;;;1999.90;999.90;;;17.60;99.90;;;;;;5053490;28;20124;-75
2023/06/23 02:12:06;;;;;;;1999.90;999.90;;;17.50;99.90;;;;;;5054399;28;20041;-75
2023/06/23 02:14:33;;;;;;;1999.90;999.90;;;17.40;99.90;;;;;;5055126;28;20030;-74
2023/06/23 02:16:59;;;;;;;1999.90;999.90;;;17.40;99.90;;;;;;5054366;28;20048;-74
2023/06/23 02:19:27;;;;;;;1999.90;999.90;;;17.30;99.90;;;;;;5054504;28;20036;-76
2023/06/23 02:21:55;;;;;;;1999.90;999.90;;;17.30;99.90;;;;;;5054279;28;20038;-74
2023/06/23 02:24:21;;;;;;;1999.90;999.90;;;17.20;99.90;;;;;;5054335;28;20040;-74
2023/06/23 02:26:48;;;;;;;1999.90;999.90;;;17.20;99.90;;;;;;5054465;28;20043;-75
2023/06/23 02:29:14;;;;;;;1999.90;999.90;;;17.20;99.90;;;;;;5054621;28;20065;-74
2023/06/23 02:31:40;;;;;;;1999.90;999.90;;;17.20;99.90;;;;;;5053854;28;20041;-75
2023/06/23 02:34:06;;;;;;;1999.90;999.90;;;17.10;99.90;;;;;;5054608;28;20472;-75
2023/06/23 02:36:54;;;;;;;1999.90;999.90;;;17.00;99.90;;;;;;5054648;28;20075;-76
2023/06/23 02:39:21;;;;;;;1999.90;999.90;;;17.00;99.90;;;;;;5054220;28;20041;-76
2023/06/23 02:41:51;;;;;;;1999.90;999.90;;;16.90;99.90;;;;;;5053847;28;20037;-76
2023/06/23 02:44:21;;;;;;;1999.90;999.90;;;16.80;99.90;;;;;;5054852;28;20175;-76
2023/06/23 02:46:54;;;;;;;1999.90;999.90;;;16.80;99.90;;;;;;5054557;28;20030;-75
2023/06/23 02:49:23;;;;;;;1999.90;999.90;;;16.70;99.90;;;;;;5054532;28;20172;-75
2023/06/23 02:51:52;;;;;;;1999.90;999.90;;;16.70;99.90;;;;;;5054146;28;20117;-76
2023/06/23 02:54:18;;;;;;;1999.90;999.90;;;16.60;99.90;;;;;;5054192;28;20030;-75
2023/06/23 02:56:46;;;;;;;1999.90;999.90;;;16.60;99.90;;;;;;5054322;28;20041;-75
2023/06/23 02:59:16;;;;;;;1999.90;999.90;;;16.60;99.90;;;;;;5054275;28;20037;-75
2023/06/23 03:01:46;;;;;;;1999.90;999.90;;;16.50;99.90;;;;;;5053621;28;20065;-75
2023/06/23 03:04:12;;;;;;;1999.90;999.90;;;16.50;99.90;;;;;;5053949;28;20025;-75
2023/06/23 03:06:38;;;;;;;1999.90;999.90;;;16.50;99.90;;;;;;5056646;28;20049;-75
2023/06/23 03:09:04;;;;;;;1999.90;999.90;;;16.50;99.90;;;;;;5057219;28;20037;-75
2023/06/23 03:11:30;;;;;;;1999.90;999.90;;;16.50;99.90;;;;;;5057256;28;20037;-75
2023/06/23 03:13:56;;;;;;;1999.90;999.90;;;16.50;99.90;;;;;;5055940;28;20040;-74
2023/06/23 03:16:44;;;;;;;1999.90;999.90;;;16.60;99.90;;;;;;5057605;28;20474;-75
2023/06/23 03:19:34;;;;;;;1999.90;999.90;;;16.60;99.90;;;;;;5057156;28;20044;-75
2023/06/23 03:22:18;;;;;;;1999.90;999.90;;;16.60;99.90;;;;;;5055508;28;20036;-75
2023/06/23 03:24:50;;;;;;;1999.90;999.90;;;16.60;99.90;;;;;;5057736;28;20492;-75
2023/06/23 03:27:21;;;;;;;1999.90;999.90;;;16.70;99.90;;;;;;5057738;28;20071;-75
2023/06/23 03:29:53;;;;;;;1999.90;999.90;;;16.70;99.90;;;;;;5057206;28;20029;-75
2023/06/23 03:32:26;;;;;;;1999.90;999.90;;;16.70;99.90;;;;;;5057110;28;20060;-76
2023/06/23 03:35:03;;;;;;;1999.90;999.90;;;16.70;99.90;;;;;;5055633;28;20581;-75
2023/06/23 03:37:30;;;;;;;1999.90;999.90;;;16.70;99.90;;;;;;5057392;28;20113;-76
2023/06/23 03:40:08;;;;;;;1999.90;999.90;;;16.80;99.90;;;;;;5057309;28;20045;-75
2023/06/23 03:42:43;;;;;;;1999.90;999.90;;;16.80;99.90;;;;;;5056750;28;20034;-75
2023/06/23 03:45:11;;;;;;;1999.90;999.90;;;16.80;99.90;;;;;;5056957;28;20040;-74
2023/06/23 03:47:39;;;;;;;1999.90;999.90;;;16.80;99.90;;;;;;5056723;28;20042;-74
2023/06/23 03:50:10;;;;;;;1999.90;999.90;;;16.80;99.90;;;;;;5056973;28;20030;-74
2023/06/23 03:52:37;;;;;;;1999.90;999.90;;;16.90;99.90;;;;;;5055231;28;20037;-75
2023/06/23 03:55:06;;;;;;;1999.90;999.90;;;16.90;99.90;;;;;;5056997;28;20061;-75
2023/06/23 03:57:32;;;;;;;1999.90;999.90;;;17.00;99.90;;;;;;5056266;28;20088;-74
2023/06/23 04:00:01;;;;;;;1999.90;999.90;;;17.00;99.90;;;;;;5056764;28;20039;-76
2023/06/23 04:02:30;;;;;;;1999.90;999.90;;;17.10;99.90;;;;;;5056502;28;20033;-75
2023/06/23 04:04:57;;;;;;;1999.90;999.90;;;17.10;99.90;;;;;;5056674;28;20131;-74
2023/06/23 04:07:26;;;;;;;1999.90;999.90;;;17.10;99.90;;;;;;5056100;28;20037;-75
2023/06/23 04:09:53;;;;;;;1999.90;999.90;;;17.20;99.90;;;;;;5056707;28;20026;-75
2023/06/23 04:12:21;;;;;;;1999.90;999.90;;;17.20;99.90;;;;;;5056049;28;20034;-75
2023/06/23 04:14:49;;;;;;;1999.90;999.90;;;17.20;99.90;;;;;;5056508;28;20045;-74
2023/06/23 04:17:17;;;;;;;1999.90;999.90;;;17.20;99.90;;;;;;5055732;28;20040;-75
2023/06/23 04:19:47;;;;;;;1999.90;999.90;;;17.20;99.90;;;;;;5056647;28;20026;-75
2023/06/23 04:22:15;;;;;;;1999.90;999.90;;;17.20;99.90;;;;;;5056083;28;20076;-75
2023/06/23 04:24:41;;;;;;;1999.90;999.90;;;17.30;99.90;;;;;;5056205;28;20056;-74
2023/06/23 04:27:09;;;;;;;1999.90;999.90;;;17.30;99.90;;;;;;5056303;28;20531;-74
2023/06/23 04:29:38;;;;;;;1999.90;999.90;;;17.30;99.90;;;;;;5056340;28;20777;-76
2023/06/23 04:32:04;;;;;;;1999.90;999.90;;;17.40;99.90;;;;;;5055975;28;20128;-74
2023/06/23 04:34:29;;;;;;;1999.90;999.90;;;17.50;99.90;;;;;;5056345;28;20040;-74
2023/06/23 04:37:07;;;;;;;1999.90;999.90;;;17.50;99.90;;;;;;5056006;28;20033;-75
2023/06/23 04:39:48;;;;;;;1999.90;999.90;;;17.50;99.90;;;;;;5056546;28;20037;-75
2023/06/23 04:42:16;;;;;;;1999.90;999.90;;;17.50;99.90;;;;;;5055928;28;20130;-74
2023/06/23 04:44:50;;;;;;;1999.90;999.90;;;17.50;99.90;;;;;;5055928;28;20029;-75
2023/06/23 04:47:19;;;;;;;1999.90;999.90;;;17.50;99.90;;;;;;5055779;28;20172;-76
2023/06/23 04:49:49;;;;;;;1999.90;999.90;;;17.50;99.90;;;;;;5055812;28;20034;-74
2023/06/23 04:52:16;;;;;;;1999.90;999.90;;;17.50;99.90;;;;;;5055481;28;20121;-74
2023/06/23 04:54:44;;;;;;;1999.90;999.90;;;17.50;99.90;;;;;;5056000;28;20029;-74
2023/06/23 04:57:16;;;;;;;1999.90;999.90;;;17.50;99.90;;;;;;5055616;28;20067;-74
2023/06/23 04:59:47;;;;;;;1999.90;999.90;;;17.50;99.90;;;;;;5055750;28;20033;-74
2023/06/23 05:02:14;;;;;;;1999.90;999.90;;;17.50;99.90;;;;;;5055507;28;20040;-75
2023/06/23 05:04:42;;;;;;;1999.90;999.90;;;17.60;99.90;;;;;;5055453;28;20105;-75
2023/06/23 05:07:08;;;;;;;1999.90;999.90;;;17.50;99.90;;;;;;5055608;28;20033;-75
2023/06/23 05:09:36;;;;;;;1999.90;999.90;;;17.50;99.90;;;;;;5055853;28;20523;-75
2023/06/23 05:12:05;;;;;;;1999.90;999.90;;;17.50;99.90;;;;;;5055333;28;20132;-75
2023/06/23 05:14:33;;;;;;;1999.90;999.90;;;17.50;99.90;;;;;;5055521;28;20503;-75
2023/06/23 05:17:01;;;;;;;1999.90;999.90;;;17.60;99.90;;;;;;5055381;28;20065;-75
2023/06/23 05:19:29;;;;;;;1999.90;999.90;;;17.60;99.90;;;;;;5055341;28;20771;-74
2023/06/23 05:21:58;;;;;;;1999.90;999.90;;;17.70;99.90;;;;;;5053543;28;20038;-74
2023/06/23 05:24:26;;;;;;;1999.90;999.90;;;17.80;99.90;;;;;;5055484;28;20172;-75
2023/06/23 05:26:55;;;;;;;1999.90;999.90;;;17.80;99.90;;;;;;5054971;28;20029;-75
2023/06/23 05:29:22;;;;;;;1999.90;999.90;;;17.80;99.90;;;;;;5054233;28;20092;-77
2023/06/23 05:31:49;;;;;;;1999.90;999.90;;;17.70;99.90;;;;;;5055153;28;20026;-75
2023/06/23 05:34:17;;;;;;;1999.90;999.90;;;17.70;99.90;;;;;;5055504;28;20075;-76
2023/06/23 05:36:43;;;;;;;1999.90;999.90;;;17.70;99.90;;;;;;5055339;28;20033;-76
2023/06/23 05:39:12;;;;;;;1999.90;999.90;;;17.80;99.90;;;;;;5055184;28;20037;-75
2023/06/23 05:41:38;;;;;;;1999.90;999.90;;;17.70;99.90;;;;;;5054655;28;20076;-75
2023/06/23 05:44:04;;;;;;;1999.90;999.90;;;17.80;99.90;;;;;;5055203;28;20467;-76
2023/06/23 05:46:32;;;;;;;1999.90;999.90;;;17.90;99.90;;;;;;5055472;28;20084;-75
2023/06/23 05:49:04;;;;;;;1999.90;999.90;;;17.90;99.90;;;;;;5053596;28;20040;-76
2023/06/23 05:51:32;;;;;;;1999.90;999.90;;;17.90;99.90;;;;;;5055068;28;20112;-76
2023/06/23 05:54:00;;;;;;;1999.90;999.90;;;17.90;99.90;;;;;;5055649;28;20399;-77
2023/06/23 05:56:40;;;;;;;1999.90;999.90;;;18.00;99.90;;;;;;5055332;28;20040;-78
2023/06/23 05:59:10;;;;;;;1999.90;999.90;;;18.00;99.90;;;;;;5055487;28;20064;-79
2023/06/23 06:01:40;;;;;;;1999.90;999.90;;;18.10;99.90;;;;;;5057094;28;20434;-78
2023/06/23 06:04:10;;;;;;;1999.90;999.90;;;18.20;99.90;;;;;;5055731;28;20033;-78
2023/06/23 06:06:37;;;;;;;1999.90;999.90;;;18.30;99.90;;;;;;5060293;28;20881;-79
2023/06/23 06:09:07;;;;;;;1999.90;999.90;;;18.40;99.90;;;;;;5059736;28;20034;-78
2023/06/23 06:11:35;;;;;;;1999.90;999.90;;;18.50;99.90;;;;;;5054307;28;20029;-77
2023/06/23 06:14:02;;;;;;;1999.90;999.90;;;18.50;99.90;;;;;;5054770;28;20803;-77
2023/06/23 06:16:28;;;;;;;1999.90;999.90;;;18.60;99.90;;;;;;5054804;28;20029;-75
2023/06/23 06:18:57;;;;;;;1999.90;999.90;;;18.70;99.90;;;;;;5054639;28;20132;-75
2023/06/23 06:21:24;;;;;;;1999.90;999.90;;;18.70;99.90;;;;;;5054303;28;20030;-75
2023/06/23 06:23:52;;;;;;;1999.90;999.90;;;18.90;99.90;;;;;;5054768;28;20060;-76
2023/06/23 06:26:19;;;;;;;1999.90;999.90;;;19.00;99.90;;;;;;5073209;28;20029;-77
2023/06/23 06:28:49;;;;;;;1999.90;999.90;;;19.10;99.90;;;;;;5073328;28;20079;-77
2023/06/23 06:31:15;;;;;;;1999.90;999.90;;;19.10;99.90;;;;;;5074742;28;20025;-77
2023/06/23 06:33:42;;;;;;;1999.90;999.90;;;19.10;99.90;;;;;;5076744;28;20902;-78
2023/06/23 06:36:08;;;;;;;1999.90;999.90;;;19.10;99.90;;;;;;5086387;28;20112;-79
2023/06/23 06:38:37;;;;;;;1999.90;999.90;;;19.20;99.90;;;;;;5088862;28;20036;-80
2023/06/23 06:41:05;;;;;;;1999.90;999.90;;;19.30;99.90;;;;;;5086695;28;20033;-80
2023/06/23 06:43:31;;;;;;;1999.90;999.90;;;19.30;99.90;;;;;;5083767;28;20123;-78
2023/06/23 06:45:59;;;;;;;1999.90;999.90;;;19.10;99.90;;;;;;5081909;28;20032;-77
2023/06/23 06:48:26;;;;;;;1999.90;999.90;;;19.00;99.90;;;;;;5079654;28;20033;-74
2023/06/23 06:50:54;;;;;;;1999.90;999.90;;;19.00;99.90;;;;;;5079369;28;20115;-79
2023/06/23 06:53:21;;;;;;;1999.90;999.90;;;19.00;99.90;;;;;;5076728;28;20052;-78
2023/06/23 06:55:47;;;;;;;1999.90;999.90;;;19.00;99.90;;;;;;5078823;28;20025;-75
2023/06/23 06:58:15;;;;;;;1999.90;999.90;;;18.90;99.90;;;;;;5075949;28;20041;-79
2023/06/23 07:00:41;;;;;;;1999.90;999.90;;;18.70;99.90;;;;;;5077479;28;20041;-77
2023/06/23 07:03:07;;;;;;;1999.90;999.90;;;18.80;99.90;;;;;;5078625;28;20448;-77
2023/06/23 07:05:33;;;;;;;1999.90;999.90;;;18.90;99.90;;;;;;5075083;28;20029;-77
2023/06/23 07:07:59;;;;;;;1999.90;999.90;;;19.00;99.90;;;;;;5074734;28;20044;-77
2023/06/23 07:10:24;;;;;;;1999.90;999.90;;;19.10;99.90;;;;;;5075401;28;20033;-77
2023/06/23 07:12:50;;;;;;;1999.90;999.90;;;19.30;99.90;;;;;;5074794;28;20045;-76
2023/06/23 07:15:15;;;;;;;1999.90;999.90;;;19.10;99.90;;;;;;5075165;28;20043;-77
2023/06/23 07:17:41;;;;;;;1999.90;999.90;;;19.10;99.90;;;;;;5075171;28;20037;-76
2023/06/23 07:20:07;;;;;;;1999.90;999.90;;;19.30;99.90;;;;;;5075222;28;20398;-77
2023/06/23 07:22:33;;;;;;;1999.90;999.90;;;19.50;99.90;;;;;;5073070;28;20090;-77
2023/06/23 07:24:58;;;;;;;1999.90;999.90;;;19.70;99.90;;;;;;5074768;28;20504;-77
2023/06/23 07:27:24;;;;;;;1999.90;999.90;;;20.00;99.90;;;;;;5074731;28;20048;-77
2023/06/23 07:29:50;;;;;;;1999.90;999.90;;;19.90;99.90;;;;;;5074708;28;20029;-78
2023/06/23 07:32:15;;;;;;;1999.90;999.90;;;19.80;99.90;;;;;;5074621;28;20037;-76
2023/06/23 07:34:41;;;;;;;1999.90;999.90;;;19.70;99.90;;;;;;5072515;28;20056;-76
2023/06/23 07:37:10;;;;;;;1999.90;999.90;;;19.30;99.90;;;;;;5073881;28;20402;-76
2023/06/23 07:39:37;;;;;;;1999.90;999.90;;;19.30;99.90;;;;;;5073885;28;20056;-76
2023/06/23 07:42:03;;;;;;;1999.90;999.90;;;19.50;99.90;;;;;;5073405;28;20029;-75
2023/06/23 07:44:28;;;;;;;1999.90;999.90;;;19.70;99.90;;;;;;5074217;28;20036;-76
2023/06/23 07:46:54;;;;;;;1999.90;999.90;;;19.80;99.90;;;;;;5073906;28;20047;-76
2023/06/23 07:49:19;;;;;;;1999.90;999.90;;;19.90;99.90;;;;;;5073764;28;20051;-77
2023/06/23 07:51:45;;;;;;;1999.90;999.90;;;19.80;99.90;;;;;;5073347;28;20124;-77
2023/06/23 07:54:11;;;;;;;1999.90;999.90;;;19.90;99.90;;;;;;5077602;28;20044;-77
2023/06/23 07:56:36;;;;;;;1999.90;999.90;;;19.90;99.90;;;;;;5078270;28;20460;-77
2023/06/23 07:59:02;;;;;;;1999.90;999.90;;;20.30;99.90;;;;;;5077294;28;20076;-77
2023/06/23 08:01:27;;;;;;;1999.90;999.90;;;20.60;99.90;;;;;;5077942;28;20033;-75
2023/06/23 08:03:53;;;;;;;1999.90;999.90;;;21.10;99.90;;;;;;5077980;28;20068;-75
2023/06/23 08:06:23;;;;;;;1999.90;999.90;;;21.50;99.90;;;;;;5077701;28;20560;-77
2023/06/23 08:08:50;;;;;;;1999.90;999.90;;;21.60;99.90;;;;;;5077077;28;20750;-77
2023/06/23 08:11:16;;;;;;;1999.90;999.90;;;21.80;99.90;;;;;;5075683;28;20528;-77
2023/06/23 08:13:41;;;;;;;1999.90;999.90;;;22.00;99.90;;;;;;5077602;28;20032;-75
2023/06/23 08:16:07;;;;;;;1999.90;999.90;;;22.20;99.90;;;;;;5077984;28;20067;-77
2023/06/23 08:18:32;;;;;;;1999.90;999.90;;;22.30;99.90;;;;;;5079423;28;20072;-76
2023/06/23 08:20:58;;;;;;;1999.90;999.90;;;22.60;99.90;;;;;;5078237;28;20145;-75
2023/06/23 08:23:23;;;;;;;1999.90;999.90;;;22.50;99.90;;;;;;5077143;28;20549;-75
2023/06/23 08:25:49;;;;;;;1999.90;999.90;;;22.00;99.90;;;;;;5077303;28;20449;-74
2023/06/23 08:28:15;;;;;;;1999.90;999.90;;;22.20;99.90;;;;;;5077171;28;20079;-75
2023/06/23 08:30:40;;;;;;;1999.90;999.90;;;22.50;99.90;;;;;;5077989;28;20479;-75
2023/06/23 08:33:06;;;;;;;1999.90;999.90;;;22.60;99.90;;;;;;5076610;28;20064;-75
2023/06/23 08:35:32;;;;;;;1999.90;999.90;;;23.00;99.90;;;;;;5076939;28;20148;-75
2023/06/23 08:37:58;;;;;;;1999.90;999.90;;;23.00;99.90;;;;;;5076852;28;20064;-75
2023/06/23 08:40:23;;;;;;;1999.90;999.90;;;22.70;99.90;;;;;;5074941;28;20136;-74
2023/06/23 08:42:49;;;;;;;1999.90;999.90;;;22.50;99.90;;;;;;5076246;28;20153;-75
2023/06/23 08:45:17;;;;;;;1999.90;999.90;;;22.30;99.90;;;;;;5075766;28;20040;-74
2023/06/23 08:47:48;;;;;;;1999.90;999.90;;;22.10;99.90;;;;;;5076437;28;20449;-74
2023/06/23 08:50:14;;;;;;;1999.90;999.90;;;22.20;99.90;;;;;;5074957;28;20789;-75
2023/06/23 08:52:41;;;;;;;1999.90;999.90;;;22.40;98.30;;;;;;5075859;28;20078;-74
2023/06/23 08:55:08;;;;;;;1999.90;999.90;;;22.30;99.30;;;;;;5076428;28;20032;-74
2023/06/23 08:57:36;;;;;;;1999.90;999.90;;;22.30;99.50;;;;;;5076138;28;20112;-75
2023/06/23 09:00:02;;;;;;;1999.90;999.90;;;22.60;99.20;;;;;;5075937;28;20036;-74
2023/06/23 09:02:28;;;;;;;1999.90;999.90;;;23.10;99.20;;;;;;5076171;28;20060;-75
2023/06/23 09:04:53;;;;;;;1999.90;999.90;;;23.30;98.10;;;;;;5076109;28;20110;-74
2023/06/23 09:07:19;;;;;;;1999.90;999.90;;;23.50;98.10;;;;;;5075561;28;20048;-75
2023/06/23 09:09:47;;;;;;;1999.90;999.90;;;23.60;96.30;;;;;;5074614;28;20120;-75
2023/06/23 09:12:16;;;;;;;1999.90;999.90;;;23.50;96.50;;;;;;5076344;28;20037;-74
2023/06/23 09:14:43;;;;;;;1999.90;999.90;;;23.40;96.30;;;;;;5075750;28;20112;-74
2023/06/23 09:17:09;;;;;;;1999.90;999.90;;;23.40;95.60;;;;;;5074612;28;20103;-75
2023/06/23 09:19:38;;;;;;;1999.90;999.90;;;23.40;96.00;;;;;;5076404;28;20035;-74
2023/06/23 09:22:06;;;;;;;1999.90;999.90;;;23.30;97.20;;;;;;5075569;28;20648;-74
2023/06/23 09:24:45;;;;;;;1999.90;999.90;;;23.40;96.90;;;;;;5075703;28;20033;-74
2023/06/23 09:27:11;;;;;;;1999.90;999.90;;;23.50;95.90;;;;;;5075856;28;20044;-74
2023/06/23 09:29:37;;;;;;;1999.90;999.90;;;23.60;94.30;;;;;;5076192;28;20033;-73
2023/06/23 09:32:03;;;;;;;1999.90;999.90;;;24.00;95.40;;;;;;5073838;28;20041;-75
2023/06/23 09:34:31;;;;;;;1999.90;999.90;;;23.80;94.20;;;;;;5075708;28;20029;-74
2023/06/23 09:37:14;;;;;;;1999.90;999.90;;;23.50;93.80;;;;;;5075415;28;20037;-74
2023/06/23 09:39:43;;;;;;;1999.90;999.90;;;23.50;94.30;;;;;;5075303;28;20033;-74
2023/06/23 09:42:13;;;;;;;1999.90;999.90;;;23.60;93.50;;;;;;5074960;28;20071;-74
2023/06/23 09:44:41;;;;;;;1999.90;999.90;;;24.00;93.50;;;;;;5075366;28;20041;-74
2023/06/23 09:47:07;;;;;;;1999.90;999.90;;;24.50;91.60;;;;;;5075097;28;20087;-74
2023/06/23 09:49:40;;;;;;;1999.90;999.90;;;24.70;91.20;;;;;;5075595;28;20171;-73
2023/06/23 09:52:07;;;;;;;1999.90;999.90;;;24.30;91.50;;;;;;5075093;28;20044;-74
2023/06/23 09:54:34;;;;;;;1999.90;999.90;;;24.40;90.70;;;;;;5075276;28;20123;-74
2023/06/23 09:57:05;;;;;;;1999.90;999.90;;;24.50;91.40;;;;;;5075310;28;20513;-74
2023/06/23 09:59:31;;;;;;;1999.90;999.90;;;24.60;92.10;;;;;;5075002;28;20029;-74
2023/06/23 10:01:57;;;;;;;1999.90;999.90;;;24.70;90.90;;;;;;5074965;28;20487;-74
2023/06/23 10:04:29;;;;;;;1999.90;999.90;;;24.80;90.90;;;;;;5075176;28;20499;-75
2023/06/23 10:06:55;;;;;;;1999.90;999.90;;;24.60;90.50;;;;;;5075381;28;20033;-74
2023/06/23 10:09:24;;;;;;;1999.90;999.90;;;24.20;90.20;;;;;;5073544;28;20055;-73
2023/06/23 10:11:50;;;;;;;1999.90;999.90;;;24.00;91.00;;;;;;5074601;28;20075;-74
2023/06/23 10:14:15;;;;;;;1999.90;999.90;;;24.00;90.90;;;;;;5074241;28;20443;-74
2023/06/23 10:16:45;;;;;;;1999.90;999.90;;;23.90;90.40;;;;;;5075203;28;20047;-74
2023/06/23 10:19:12;;;;;;;1999.90;999.90;;;23.70;90.40;;;;;;5074332;28;20032;-74
2023/06/23 10:21:39;;;;;;;1999.90;999.90;;;23.90;90.30;;;;;;5075080;28;20035;-74
2023/06/23 10:24:08;;;;;;;1999.90;999.90;;;24.10;89.40;;;;;;5073236;28;20029;-74
2023/06/23 10:26:36;;;;;;;1999.90;999.90;;;24.50;89.10;;;;;;5074835;28;20087;-74
2023/06/23 10:29:12;;;;;;;1999.90;999.90;;;24.90;87.90;;;;;;5074610;28;20518;-73
2023/06/23 10:31:40;;;;;;;1999.90;999.90;;;24.70;87.70;;;;;;5073989;28;20059;-73
2023/06/23 10:34:10;;;;;;;1999.90;999.90;;;24.60;88.00;;;;;;5074810;28;20037;-74
2023/06/23 10:36:39;;;;;;;1999.90;999.90;;;24.80;88.50;;;;;;5075198;28;20029;-73
2023/06/23 10:39:06;;;;;;;1999.90;999.90;;;24.90;89.90;;;;;;5074305;28;20115;-73
2023/06/23 10:41:34;;;;;;;1999.90;999.90;;;25.20;86.10;;;;;;5074243;28;20419;-74
2023/06/23 10:44:02;;;;;;;1999.90;999.90;;;25.10;85.10;;;;;;5074583;28;20113;-74
2023/06/23 10:46:28;;;;;;;1999.90;999.90;;;25.10;84.30;;;;;;5074406;28;20036;-74
2023/06/23 10:48:54;;;;;;;1999.90;999.90;;;25.00;85.70;;;;;;5072997;28;20040;-74
2023/06/23 10:51:20;;;;;;;1999.90;999.90;;;25.20;82.70;;;;;;5064461;28;20499;-73
2023/06/23 10:53:57;;;;;;;1999.90;999.90;;;25.50;82.50;;;;;;5067708;28;20049;-74
2023/06/23 10:56:37;;;;;;;1999.90;999.90;;;25.90;84.10;;;;;;5074598;28;20048;-75
2023/06/23 10:59:20;;;;;;;1999.90;999.90;;;25.30;82.10;;;;;;5074077;28;20483;-73
2023/06/23 11:02:01;;;;;;;1999.90;999.90;;;24.80;82.40;;;;;;5073089;28;20098;-73
2023/06/23 11:04:29;;;;;;;1999.90;999.90;;;25.10;83.70;;;;;;5074850;28;20068;-75
2023/06/23 11:07:21;;;;;;;1999.90;999.90;;;25.00;82.20;;;;;;5069066;28;20053;-74
2023/06/23 11:10:08;;;;;;;1999.90;999.90;;;25.00;82.80;;;;;;5051453;28;20049;-74
2023/06/23 11:12:37;;;;;;;1999.90;999.90;;;25.20;81.30;;;;;;5073772;28;20561;-73
2023/06/23 11:15:13;;;;;;;1999.90;999.90;;;25.50;80.60;;;;;;5074400;28;20025;-74
2023/06/23 11:17:49;;;;;;;1999.90;999.90;;;25.40;79.20;;;;;;5073502;28;20083;-74
2023/06/23 11:20:24;;;;;;;1999.90;999.90;;;25.10;80.40;;;;;;5075271;28;20458;-73
2023/06/23 11:23:00;;;;;;;1999.90;999.90;;;24.40;81.70;;;;;;5067323;28;20507;-74
2023/06/23 11:25:29;;;;;;;1999.90;999.90;;;24.00;82.40;;;;;;5054464;28;20071;-74
2023/06/23 11:28:28;;;;;;;1999.90;999.90;;;24.10;83.50;;;;;;5057732;28;20037;-75
2023/06/23 11:31:05;;;;;;;1999.90;999.90;;;24.40;82.70;;;;;;5058012;28;20033;-77
2023/06/23 11:33:37;;;;;;;1999.90;999.90;;;25.10;83.50;;;;;;5057201;28;20037;-77
2023/06/23 11:36:15;;;;;;;1999.90;999.90;;;25.40;80.70;;;;;;5071443;28;20443;-76
2023/06/23 11:38:42;;;;;;;1999.90;999.90;;;25.80;80.60;;;;;;5075653;28;20576;-75
2023/06/23 11:41:09;;;;;;;1999.90;999.90;;;26.10;80.00;;;;;;5077164;28;20061;-76
2023/06/23 11:43:38;;;;;;;1999.90;999.90;;;25.80;80.50;;;;;;5077258;28;20467;-75
2023/06/23 11:46:08;;;;;;;1999.90;999.90;;;25.70;80.00;;;;;;5077411;28;20033;-76
2023/06/23 11:48:36;;;;;;;1999.90;999.90;;;25.90;81.40;;;;;;5077185;28;20112;-76
2023/06/23 11:51:03;;;;;;;1999.90;999.90;;;26.00;81.30;;;;;;5075486;28;20792;-76
2023/06/23 11:53:41;;;;;;;1999.90;999.90;;;25.90;80.10;;;;;;5078834;28;20029;-82
2023/06/23 11:56:08;;;;;;;1999.90;999.90;;;25.90;79.00;;;;;;5081134;28;20100;-79
2023/06/23 11:58:35;;;;;;;1999.90;999.90;;;26.00;76.50;;;;;;5077306;28;20036;-76
2023/06/23 12:01:01;;;;;;;1999.90;999.90;;;26.20;77.80;;;;;;5076124;28;20033;-76
2023/06/23 12:03:31;;;;;;;1999.90;999.90;;;26.30;77.70;;;;;;5075309;28;20482;-77
2023/06/23 12:05:59;;;;;;;1999.90;999.90;;;26.10;77.10;;;;;;5072732;28;20091;-77